KAL1401 RKSI-RKPK
Flight info
| Callsign | KAL1401 |
|---|---|
| Flight time | 1h 5m |
| Altitude | 25000 |
| Route | OSPOT Y782 TGU Z83 MASTA |
| Aircraft | A21N/M-SDE2E3FGHIJ1RWXY/LB1 |
Departure
| Time | 2026-05-04 12:16 |
|---|---|
| Airport | Incheon International Airport (RKSI) |
Arrival
| Time | 2026-05-04 13:21 |
|---|---|
| Airport | Gimhae International Airport (RKPK) |
| Time | Latitude | Longitude | Altitude | Speed | Heading |
|---|---|---|---|---|---|
| 2026-05-04 11:55 | 37.47074 | 126.42650 | 38 ft | 0 kts | 145° |
| 2026-05-04 11:58 | 37.47085 | 126.42640 | 37 ft | 4 kts | 145° |
| 2026-05-04 11:58 | 37.47107 | 126.42621 | 37 ft | 4 kts | 141° |
| 2026-05-04 11:59 | 37.47120 | 126.42603 | 37 ft | 4 kts | 75° |
| 2026-05-04 11:59 | 37.47110 | 126.42583 | 38 ft | 4 kts | 54° |
| 2026-05-04 11:59 | 37.47103 | 126.42569 | 37 ft | 0 kts | 54° |
| 2026-05-04 12:03 | 37.47105 | 126.42573 | 38 ft | 3 kts | 55° |
| 2026-05-04 12:04 | 37.47123 | 126.42606 | 38 ft | 6 kts | 55° |
| 2026-05-04 12:04 | 37.47148 | 126.42652 | 38 ft | 7 kts | 55° |
| 2026-05-04 12:04 | 37.47179 | 126.42708 | 38 ft | 9 kts | 55° |
| 2026-05-04 12:04 | 37.47219 | 126.42768 | 36 ft | 10 kts | 1° |
| 2026-05-04 12:05 | 37.47277 | 126.42761 | 38 ft | 10 kts | 36° |
| 2026-05-04 12:05 | 37.47323 | 126.42834 | 38 ft | 11 kts | 56° |
| 2026-05-04 12:05 | 37.47373 | 126.42920 | 38 ft | 13 kts | 54° |
| 2026-05-04 12:05 | 37.47427 | 126.43015 | 35 ft | 14 kts | 56° |
| 2026-05-04 12:06 | 37.47487 | 126.43123 | 38 ft | 15 kts | 53° |
| 2026-05-04 12:06 | 37.47550 | 126.43236 | 38 ft | 17 kts | 55° |
| 2026-05-04 12:06 | 37.47619 | 126.43358 | 38 ft | 18 kts | 54° |
| 2026-05-04 12:06 | 37.47655 | 126.43420 | 38 ft | 6 kts | 55° |
| 2026-05-04 12:07 | 37.47680 | 126.43465 | 38 ft | 7 kts | 55° |
| 2026-05-04 12:07 | 37.47714 | 126.43527 | 38 ft | 10 kts | 53° |
| 2026-05-04 12:07 | 37.47725 | 126.43616 | 38 ft | 12 kts | 125° |
| 2026-05-04 12:07 | 37.47628 | 126.43704 | 38 ft | 27 kts | 144° |
| 2026-05-04 12:08 | 37.47470 | 126.43846 | 38 ft | 28 kts | 145° |
| 2026-05-04 12:08 | 37.47306 | 126.43991 | 36 ft | 29 kts | 144° |
| 2026-05-04 12:08 | 37.47137 | 126.44145 | 38 ft | 31 kts | 144° |
| 2026-05-04 12:08 | 37.46961 | 126.44297 | 36 ft | 31 kts | 146° |
| 2026-05-04 12:09 | 37.46812 | 126.44433 | 38 ft | 25 kts | 144° |
| 2026-05-04 12:09 | 37.46666 | 126.44563 | 38 ft | 26 kts | 145° |
| 2026-05-04 12:09 | 37.46513 | 126.44697 | 36 ft | 27 kts | 145° |
| 2026-05-04 12:09 | 37.46355 | 126.44837 | 37 ft | 28 kts | 145° |
| 2026-05-04 12:10 | 37.46193 | 126.44984 | 38 ft | 29 kts | 143° |
| 2026-05-04 12:10 | 37.46022 | 126.45132 | 36 ft | 27 kts | 143° |
| 2026-05-04 12:10 | 37.45884 | 126.45258 | 38 ft | 15 kts | 146° |
| 2026-05-04 12:10 | 37.45826 | 126.45309 | 38 ft | 4 kts | 143° |
| 2026-05-04 12:11 | 37.45798 | 126.45335 | 36 ft | 6 kts | 143° |
| 2026-05-04 12:11 | 37.45761 | 126.45369 | 38 ft | 7 kts | 143° |
| 2026-05-04 12:11 | 37.45733 | 126.45424 | 38 ft | 9 kts | 80° |
| 2026-05-04 12:11 | 37.45776 | 126.45482 | 38 ft | 10 kts | 24° |
| 2026-05-04 12:12 | 37.45819 | 126.45504 | 38 ft | 6 kts | 35° |
| 2026-05-04 12:12 | 37.45831 | 126.45519 | 38 ft | 0 kts | 53° |
| 2026-05-04 12:14 | 37.45897 | 126.45634 | 38 ft | 10 kts | 54° |
| 2026-05-04 12:15 | 37.45935 | 126.45633 | 36 ft | 7 kts | 326° |
| 2026-05-04 12:15 | 37.45942 | 126.45626 | 38 ft | 0 kts | 323° |
| 2026-05-04 12:15 | 37.45979 | 126.45591 | 38 ft | 22 kts | 324° |
| 2026-05-04 12:15 | 37.46309 | 126.45299 | 36 ft | 94 kts | 324° |
| 2026-05-04 12:16 | 37.47030 | 126.44655 | 39 ft | 158 kts | 323° |
| 2026-05-04 12:16 | 37.47941 | 126.43848 | 652 ft | 155 kts | 322° |
| 2026-05-04 12:16 | 37.48836 | 126.43139 | 1331 ft | 153 kts | 326° |
| 2026-05-04 12:16 | 37.49723 | 126.42413 | 1956 ft | 151 kts | 321° |
| 2026-05-04 12:17 | 37.50601 | 126.41667 | 2490 ft | 154 kts | 323° |
| 2026-05-04 12:17 | 37.51533 | 126.40904 | 2881 ft | 166 kts | 324° |
| 2026-05-04 12:17 | 37.52536 | 126.40076 | 3285 ft | 179 kts | 324° |
| 2026-05-04 12:17 | 37.53603 | 126.39185 | 3676 ft | 194 kts | 324° |
| 2026-05-04 12:18 | 37.54775 | 126.38216 | 4124 ft | 208 kts | 325° |
| 2026-05-04 12:18 | 37.56083 | 126.37253 | 4518 ft | 227 kts | 335° |
| 2026-05-04 12:18 | 37.57618 | 126.36627 | 5120 ft | 235 kts | 342° |
| 2026-05-04 12:18 | 37.59197 | 126.36091 | 5823 ft | 239 kts | 343° |
| 2026-05-04 12:19 | 37.60811 | 126.35539 | 6539 ft | 242 kts | 343° |
| 2026-05-04 12:19 | 37.62497 | 126.35297 | 7196 ft | 248 kts | 5° |
| 2026-05-04 12:19 | 37.64119 | 126.36056 | 7815 ft | 257 kts | 34° |
| 2026-05-04 12:19 | 37.65292 | 126.37855 | 8209 ft | 277 kts | 62° |
| 2026-05-04 12:20 | 37.65954 | 126.40182 | 8791 ft | 285 kts | 70° |
| 2026-05-04 12:20 | 37.66529 | 126.42590 | 9504 ft | 289 kts | 72° |
| 2026-05-04 12:20 | 37.66801 | 126.45131 | 10026 ft | 301 kts | 91° |
| 2026-05-04 12:20 | 37.66318 | 126.47758 | 10247 ft | 322 kts | 108° |
| 2026-05-04 12:21 | 37.65480 | 126.50474 | 10482 ft | 340 kts | 110° |
| 2026-05-04 12:21 | 37.64527 | 126.53297 | 10707 ft | 358 kts | 116° |
| 2026-05-04 12:21 | 37.63087 | 126.55951 | 10924 ft | 376 kts | 131° |
| 2026-05-04 12:21 | 37.61154 | 126.58274 | 11149 ft | 392 kts | 137° |
| 2026-05-04 12:22 | 37.59064 | 126.60593 | 11364 ft | 406 kts | 138° |
| 2026-05-04 12:22 | 37.56919 | 126.62975 | 11692 ft | 413 kts | 138° |
| 2026-05-04 12:22 | 37.54789 | 126.65368 | 12134 ft | 416 kts | 137° |
| 2026-05-04 12:22 | 37.52631 | 126.67817 | 12596 ft | 418 kts | 137° |
| 2026-05-04 12:23 | 37.50461 | 126.70282 | 13055 ft | 420 kts | 137° |
| 2026-05-04 12:23 | 37.48281 | 126.72766 | 13538 ft | 423 kts | 137° |
| 2026-05-04 12:23 | 37.46088 | 126.75266 | 13999 ft | 425 kts | 137° |
| 2026-05-04 12:23 | 37.43886 | 126.77788 | 14331 ft | 430 kts | 137° |
| 2026-05-04 12:24 | 37.41650 | 126.80318 | 14711 ft | 433 kts | 139° |
| 2026-05-04 12:24 | 37.39270 | 126.82671 | 15152 ft | 436 kts | 142° |
| 2026-05-04 12:24 | 37.36860 | 126.84948 | 15619 ft | 439 kts | 142° |
| 2026-05-04 12:24 | 37.34408 | 126.87250 | 16078 ft | 442 kts | 142° |
| 2026-05-04 12:25 | 37.31932 | 126.89578 | 16507 ft | 445 kts | 142° |
| 2026-05-04 12:25 | 37.29442 | 126.91930 | 16976 ft | 447 kts | 142° |
| 2026-05-04 12:25 | 37.26950 | 126.94294 | 17425 ft | 449 kts | 142° |
| 2026-05-04 12:25 | 37.24448 | 126.96671 | 17874 ft | 452 kts | 142° |
| 2026-05-04 12:26 | 37.21926 | 126.99059 | 18297 ft | 455 kts | 142° |
| 2026-05-04 12:26 | 37.19427 | 127.01430 | 18627 ft | 458 kts | 142° |
| 2026-05-04 12:26 | 37.16871 | 127.03852 | 18939 ft | 461 kts | 142° |
| 2026-05-04 12:26 | 37.14300 | 127.06280 | 19282 ft | 464 kts | 142° |
| 2026-05-04 12:27 | 37.11717 | 127.08716 | 19652 ft | 465 kts | 142° |
| 2026-05-04 12:27 | 37.09122 | 127.11159 | 19991 ft | 467 kts | 142° |
| 2026-05-04 12:27 | 37.06517 | 127.13604 | 20304 ft | 469 kts | 142° |
| 2026-05-04 12:27 | 37.03895 | 127.16064 | 20618 ft | 471 kts | 142° |
| 2026-05-04 12:28 | 37.01255 | 127.18543 | 20980 ft | 473 kts | 142° |
| 2026-05-04 12:28 | 36.98618 | 127.21018 | 21434 ft | 474 kts | 142° |
| 2026-05-04 12:28 | 36.96003 | 127.23466 | 21818 ft | 476 kts | 142° |
| 2026-05-04 12:28 | 36.93346 | 127.25954 | 22118 ft | 479 kts | 143° |
| 2026-05-04 12:29 | 36.90668 | 127.28462 | 22403 ft | 482 kts | 143° |
| 2026-05-04 12:29 | 36.87978 | 127.30977 | 22724 ft | 484 kts | 143° |
| 2026-05-04 12:29 | 36.85274 | 127.33503 | 23031 ft | 486 kts | 143° |
| 2026-05-04 12:29 | 36.82687 | 127.36246 | 23331 ft | 488 kts | 136° |
| 2026-05-04 12:30 | 36.80268 | 127.39213 | 23678 ft | 489 kts | 135° |
| 2026-05-04 12:30 | 36.77844 | 127.42202 | 24012 ft | 489 kts | 135° |
| 2026-05-04 12:30 | 36.75419 | 127.45186 | 24334 ft | 489 kts | 135° |
| 2026-05-04 12:30 | 36.73000 | 127.48154 | 24649 ft | 489 kts | 136° |
| 2026-05-04 12:31 | 36.70567 | 127.51139 | 24912 ft | 490 kts | 136° |
| 2026-05-04 12:31 | 36.68123 | 127.54133 | 25105 ft | 492 kts | 136° |
| 2026-05-04 12:31 | 36.65685 | 127.57120 | 25128 ft | 492 kts | 136° |
| 2026-05-04 12:31 | 36.63265 | 127.60079 | 25121 ft | 492 kts | 136° |
| 2026-05-04 12:32 | 36.60818 | 127.63061 | 25111 ft | 492 kts | 136° |
| 2026-05-04 12:32 | 36.55924 | 127.69025 | 25100 ft | 492 kts | 136° |
| 2026-05-04 12:32 | 36.53481 | 127.72005 | 25098 ft | 492 kts | 136° |
| 2026-05-04 12:33 | 36.51861 | 127.73978 | 25100 ft | 493 kts | 137° |
| 2026-05-04 12:33 | 36.49409 | 127.76961 | 25100 ft | 493 kts | 137° |
| 2026-05-04 12:33 | 36.46951 | 127.79946 | 25101 ft | 493 kts | 137° |
| 2026-05-04 12:33 | 36.43666 | 127.83930 | 25101 ft | 493 kts | 137° |
| 2026-05-04 12:34 | 36.42035 | 127.85905 | 25101 ft | 493 kts | 137° |
| 2026-05-04 12:34 | 36.39577 | 127.88878 | 25100 ft | 493 kts | 137° |
| 2026-05-04 12:34 | 36.37120 | 127.91854 | 25098 ft | 493 kts | 137° |
| 2026-05-04 12:34 | 36.33852 | 127.95805 | 25090 ft | 496 kts | 137° |
| 2026-05-04 12:35 | 36.32218 | 127.97786 | 25096 ft | 498 kts | 137° |
| 2026-05-04 12:35 | 36.29739 | 128.00802 | 25095 ft | 498 kts | 137° |
| 2026-05-04 12:35 | 36.26450 | 128.04805 | 25097 ft | 498 kts | 138° |
| 2026-05-04 12:35 | 36.24661 | 128.06671 | 25092 ft | 496 kts | 146° |
| 2026-05-04 12:36 | 36.21825 | 128.08994 | 25099 ft | 494 kts | 152° |
| 2026-05-04 12:36 | 36.18844 | 128.11107 | 25098 ft | 493 kts | 153° |
| 2026-05-04 12:36 | 36.15829 | 128.13149 | 25098 ft | 493 kts | 154° |
| 2026-05-04 12:36 | 36.12804 | 128.15173 | 25098 ft | 493 kts | 154° |
| 2026-05-04 12:37 | 36.09777 | 128.17193 | 25100 ft | 493 kts | 154° |
| 2026-05-04 12:37 | 36.06762 | 128.19203 | 24860 ft | 487 kts | 154° |
| 2026-05-04 12:37 | 36.03824 | 128.21178 | 23807 ft | 488 kts | 154° |
| 2026-05-04 12:37 | 36.00804 | 128.23139 | 22475 ft | 492 kts | 155° |
| 2026-05-04 12:38 | 35.97722 | 128.25072 | 21533 ft | 487 kts | 155° |
| 2026-05-04 12:38 | 35.94759 | 128.26919 | 21068 ft | 479 kts | 155° |
| 2026-05-04 12:38 | 35.91784 | 128.28768 | 20747 ft | 477 kts | 154° |
| 2026-05-04 12:38 | 35.88824 | 128.30620 | 20398 ft | 471 kts | 154° |
| 2026-05-04 12:39 | 35.85916 | 128.32441 | 19567 ft | 466 kts | 153° |
| 2026-05-04 12:39 | 35.83037 | 128.34242 | 18757 ft | 461 kts | 153° |
| 2026-05-04 12:39 | 35.80186 | 128.36017 | 17904 ft | 456 kts | 152° |
| 2026-05-04 12:39 | 35.77371 | 128.37774 | 17000 ft | 451 kts | 152° |
| 2026-05-04 12:40 | 35.74621 | 128.39494 | 16141 ft | 447 kts | 153° |
| 2026-05-04 12:40 | 35.71858 | 128.41215 | 15341 ft | 443 kts | 153° |
| 2026-05-04 12:40 | 35.69111 | 128.42923 | 14636 ft | 439 kts | 153° |
| 2026-05-04 12:40 | 35.66398 | 128.44617 | 13888 ft | 435 kts | 153° |
| 2026-05-04 12:41 | 35.63716 | 128.46297 | 13105 ft | 431 kts | 153° |
| 2026-05-04 12:41 | 35.61049 | 128.47958 | 12430 ft | 427 kts | 153° |
| 2026-05-04 12:41 | 35.58414 | 128.49592 | 12050 ft | 419 kts | 153° |
| 2026-05-04 12:41 | 35.55879 | 128.51163 | 11978 ft | 397 kts | 153° |
| 2026-05-04 12:42 | 35.53468 | 128.52654 | 11972 ft | 375 kts | 154° |
| 2026-05-04 12:42 | 35.51209 | 128.54057 | 11986 ft | 354 kts | 153° |
| 2026-05-04 12:42 | 35.49094 | 128.55369 | 11995 ft | 335 kts | 153° |
| 2026-05-04 12:42 | 35.47068 | 128.56597 | 11936 ft | 318 kts | 158° |
| 2026-05-04 12:43 | 35.44934 | 128.57295 | 11404 ft | 317 kts | 171° |
| 2026-05-04 12:43 | 35.42754 | 128.57751 | 10976 ft | 316 kts | 172° |
| 2026-05-04 12:43 | 35.40596 | 128.58206 | 10587 ft | 313 kts | 172° |
| 2026-05-04 12:43 | 35.38497 | 128.58651 | 10364 ft | 305 kts | 172° |
| 2026-05-04 12:44 | 35.36438 | 128.59090 | 10212 ft | 294 kts | 172° |
| 2026-05-04 12:44 | 35.34456 | 128.59513 | 10056 ft | 287 kts | 172° |
| 2026-05-04 12:44 | 35.32493 | 128.59935 | 9922 ft | 285 kts | 172° |
| 2026-05-04 12:44 | 35.30550 | 128.60357 | 9772 ft | 282 kts | 172° |
| 2026-05-04 12:45 | 35.28616 | 128.60790 | 9633 ft | 281 kts | 172° |
| 2026-05-04 12:45 | 35.26689 | 128.61224 | 9506 ft | 281 kts | 172° |
| 2026-05-04 12:45 | 35.24786 | 128.61652 | 9361 ft | 280 kts | 172° |
| 2026-05-04 12:45 | 35.22870 | 128.62075 | 9236 ft | 279 kts | 172° |
| 2026-05-04 12:46 | 35.20962 | 128.62493 | 9105 ft | 278 kts | 172° |
| 2026-05-04 12:46 | 35.19063 | 128.62909 | 9000 ft | 277 kts | 172° |
| 2026-05-04 12:46 | 35.17160 | 128.63325 | 8990 ft | 277 kts | 172° |
| 2026-05-04 12:46 | 35.15259 | 128.63739 | 9008 ft | 277 kts | 172° |
| 2026-05-04 12:47 | 35.13360 | 128.64151 | 9009 ft | 277 kts | 172° |
| 2026-05-04 12:47 | 35.11465 | 128.64562 | 9015 ft | 277 kts | 172° |
| 2026-05-04 12:47 | 35.09569 | 128.64973 | 9016 ft | 276 kts | 172° |
| 2026-05-04 12:47 | 35.07672 | 128.65394 | 9015 ft | 277 kts | 172° |
| 2026-05-04 12:48 | 35.05802 | 128.65809 | 8978 ft | 268 kts | 172° |
| 2026-05-04 12:48 | 35.04022 | 128.66204 | 8738 ft | 259 kts | 172° |
| 2026-05-04 12:48 | 35.02255 | 128.66592 | 8153 ft | 257 kts | 172° |
| 2026-05-04 12:48 | 35.00494 | 128.66723 | 7581 ft | 252 kts | 188° |
| 2026-05-04 12:49 | 34.98772 | 128.66444 | 7104 ft | 246 kts | 191° |
| 2026-05-04 12:49 | 34.97101 | 128.66103 | 6613 ft | 241 kts | 191° |
| 2026-05-04 12:49 | 34.95468 | 128.65752 | 6200 ft | 235 kts | 192° |
| 2026-05-04 12:49 | 34.93871 | 128.65407 | 6032 ft | 231 kts | 192° |
| 2026-05-04 12:50 | 34.92306 | 128.65066 | 6006 ft | 233 kts | 192° |
| 2026-05-04 12:50 | 34.90707 | 128.64721 | 6012 ft | 231 kts | 192° |
| 2026-05-04 12:50 | 34.89117 | 128.64649 | 6010 ft | 230 kts | 166° |
| 2026-05-04 12:50 | 34.87703 | 128.65517 | 6014 ft | 230 kts | 135° |
| 2026-05-04 12:51 | 34.86836 | 128.67136 | 6017 ft | 230 kts | 104° |
| 2026-05-04 12:51 | 34.86759 | 128.69039 | 6030 ft | 225 kts | 73° |
| 2026-05-04 12:51 | 34.87291 | 128.70781 | 5752 ft | 220 kts | 63° |
| 2026-05-04 12:51 | 34.87952 | 128.72461 | 5277 ft | 219 kts | 62° |
| 2026-05-04 12:52 | 34.88713 | 128.74053 | 4854 ft | 215 kts | 46° |
| 2026-05-04 12:52 | 34.89889 | 128.75101 | 4513 ft | 210 kts | 19° |
| 2026-05-04 12:52 | 34.91320 | 128.75365 | 4319 ft | 208 kts | 358° |
| 2026-05-04 12:52 | 34.92764 | 128.75260 | 4190 ft | 207 kts | 356° |
| 2026-05-04 12:53 | 34.94207 | 128.75166 | 4052 ft | 207 kts | 357° |
| 2026-05-04 12:53 | 34.95651 | 128.75105 | 3992 ft | 207 kts | 358° |
| 2026-05-04 12:53 | 34.97077 | 128.75065 | 4000 ft | 208 kts | 358° |
| 2026-05-04 12:53 | 34.98524 | 128.75028 | 4013 ft | 207 kts | 359° |
| 2026-05-04 12:54 | 34.99959 | 128.75124 | 4012 ft | 207 kts | 14° |
| 2026-05-04 12:54 | 35.01247 | 128.75949 | 4012 ft | 219 kts | 36° |
| 2026-05-04 12:54 | 35.02447 | 128.77136 | 4002 ft | 215 kts | 37° |
| 2026-05-04 12:54 | 35.03599 | 128.78253 | 3606 ft | 203 kts | 36° |
| 2026-05-04 12:55 | 35.04665 | 128.79269 | 3417 ft | 185 kts | 35° |
| 2026-05-04 12:55 | 35.05625 | 128.80166 | 3314 ft | 165 kts | 33° |
| 2026-05-04 12:55 | 35.06473 | 128.80955 | 3131 ft | 143 kts | 32° |
| 2026-05-04 12:55 | 35.07255 | 128.81670 | 2756 ft | 140 kts | 31° |
| 2026-05-04 12:56 | 35.08030 | 128.82385 | 2596 ft | 139 kts | 31° |
| 2026-05-04 12:56 | 35.08805 | 128.83093 | 2591 ft | 139 kts | 31° |
| 2026-05-04 12:56 | 35.09582 | 128.83806 | 2625 ft | 139 kts | 32° |
| 2026-05-04 12:56 | 35.10357 | 128.84527 | 2615 ft | 139 kts | 32° |
| 2026-05-04 12:57 | 35.11130 | 128.85245 | 2442 ft | 140 kts | 33° |
| 2026-05-04 12:57 | 35.11894 | 128.85970 | 2013 ft | 139 kts | 33° |
| 2026-05-04 12:57 | 35.12658 | 128.86695 | 1692 ft | 139 kts | 33° |
| 2026-05-04 12:57 | 35.13417 | 128.87411 | 1682 ft | 140 kts | 33° |
| 2026-05-04 12:58 | 35.14204 | 128.88105 | 1709 ft | 137 kts | 17° |
| 2026-05-04 12:58 | 35.15123 | 128.88173 | 1739 ft | 133 kts | 355° |
| 2026-05-04 12:58 | 35.16056 | 128.88199 | 1717 ft | 134 kts | 358° |
| 2026-05-04 12:58 | 35.16995 | 128.88232 | 1705 ft | 135 kts | 358° |
| 2026-05-04 12:59 | 35.17935 | 128.88265 | 1677 ft | 135 kts | 358° |
| 2026-05-04 12:59 | 35.18862 | 128.88302 | 1615 ft | 135 kts | 0° |
| 2026-05-04 12:59 | 35.19796 | 128.88436 | 1508 ft | 135 kts | 7° |
| 2026-05-04 12:59 | 35.20688 | 128.88823 | 1384 ft | 138 kts | 22° |
| 2026-05-04 13:00 | 35.21533 | 128.89409 | 1257 ft | 142 kts | 36° |
| 2026-05-04 13:00 | 35.22143 | 128.90351 | 1164 ft | 145 kts | 63° |
| 2026-05-04 13:00 | 35.22340 | 128.91555 | 1077 ft | 146 kts | 90° |
| 2026-05-04 13:00 | 35.22240 | 128.92799 | 1000 ft | 147 kts | 98° |
| 2026-05-04 13:01 | 35.21672 | 128.93755 | 812 ft | 146 kts | 165° |
| 2026-05-04 13:01 | 35.20730 | 128.93488 | 450 ft | 141 kts | 206° |
| 2026-05-04 13:01 | 35.19758 | 128.93437 | 337 ft | 159 kts | 173° |
| 2026-05-04 13:01 | 35.18568 | 128.93613 | 990 ft | 182 kts | 175° |
| 2026-05-04 13:02 | 35.17243 | 128.93837 | 1627 ft | 208 kts | 174° |
| 2026-05-04 13:02 | 35.15790 | 128.94090 | 2227 ft | 214 kts | 174° |
| 2026-05-04 13:02 | 35.14285 | 128.94352 | 2808 ft | 224 kts | 173° |
| 2026-05-04 13:02 | 35.12695 | 128.94630 | 3363 ft | 238 kts | 173° |
| 2026-05-04 13:03 | 35.11089 | 128.94911 | 3854 ft | 230 kts | 172° |
| 2026-05-04 13:03 | 35.09427 | 128.95201 | 4075 ft | 247 kts | 172° |
| 2026-05-04 13:03 | 35.07716 | 128.95500 | 4076 ft | 249 kts | 172° |
| 2026-05-04 13:03 | 35.06023 | 128.95795 | 4049 ft | 250 kts | 172° |
| 2026-05-04 13:04 | 35.04308 | 128.96094 | 4451 ft | 248 kts | 172° |
| 2026-05-04 13:04 | 35.02594 | 128.96393 | 5196 ft | 249 kts | 172° |
| 2026-05-04 13:04 | 35.00866 | 128.96694 | 5743 ft | 252 kts | 172° |
| 2026-05-04 13:04 | 34.99134 | 128.96995 | 5959 ft | 251 kts | 172° |
| 2026-05-04 13:05 | 34.97397 | 128.97298 | 6011 ft | 252 kts | 172° |
| 2026-05-04 13:05 | 34.95672 | 128.97597 | 6025 ft | 252 kts | 172° |
| 2026-05-04 13:05 | 34.93929 | 128.97900 | 6025 ft | 253 kts | 172° |
| 2026-05-04 13:05 | 34.92180 | 128.98279 | 6018 ft | 254 kts | 160° |
| 2026-05-04 13:06 | 34.90708 | 128.99395 | 6015 ft | 251 kts | 131° |
| 2026-05-04 13:06 | 34.89842 | 129.01191 | 6011 ft | 246 kts | 102° |
| 2026-05-04 13:06 | 34.89296 | 129.03178 | 6014 ft | 248 kts | 115° |
| 2026-05-04 13:06 | 34.88278 | 129.04906 | 6143 ft | 253 kts | 133° |
| 2026-05-04 13:07 | 34.86852 | 129.06065 | 5986 ft | 250 kts | 166° |
| 2026-05-04 13:07 | 34.85132 | 129.06052 | 6033 ft | 249 kts | 202° |
| 2026-05-04 13:07 | 34.83780 | 129.04806 | 6020 ft | 245 kts | 236° |
| 2026-05-04 13:07 | 34.83137 | 129.02924 | 6027 ft | 242 kts | 265° |
| 2026-05-04 13:08 | 34.83201 | 129.00901 | 6029 ft | 238 kts | 280° |
| 2026-05-04 13:08 | 34.83461 | 128.98903 | 6028 ft | 238 kts | 282° |
| 2026-05-04 13:08 | 34.83727 | 128.96918 | 6025 ft | 239 kts | 281° |
| 2026-05-04 13:08 | 34.84006 | 128.94920 | 6025 ft | 239 kts | 282° |
| 2026-05-04 13:09 | 34.84273 | 128.92934 | 6022 ft | 238 kts | 282° |
| 2026-05-04 13:09 | 34.84538 | 128.90941 | 6022 ft | 238 kts | 284° |
| 2026-05-04 13:09 | 34.85202 | 128.89144 | 6022 ft | 233 kts | 308° |
| 2026-05-04 13:09 | 34.86308 | 128.87685 | 6028 ft | 235 kts | 321° |
| 2026-05-04 13:10 | 34.87591 | 128.86488 | 6030 ft | 234 kts | 323° |
| 2026-05-04 13:10 | 34.88897 | 128.85305 | 6023 ft | 233 kts | 323° |
| 2026-05-04 13:10 | 34.90201 | 128.84114 | 6027 ft | 235 kts | 323° |
| 2026-05-04 13:10 | 34.91500 | 128.82917 | 6020 ft | 235 kts | 323° |
| 2026-05-04 13:11 | 34.92808 | 128.81710 | 6019 ft | 236 kts | 323° |
| 2026-05-04 13:11 | 34.94112 | 128.80500 | 6018 ft | 236 kts | 323° |
| 2026-05-04 13:11 | 34.95418 | 128.79285 | 6019 ft | 235 kts | 323° |
| 2026-05-04 13:11 | 34.96713 | 128.78080 | 6016 ft | 229 kts | 323° |
| 2026-05-04 13:12 | 34.97931 | 128.76945 | 5949 ft | 212 kts | 323° |
| 2026-05-04 13:12 | 34.99080 | 128.75871 | 5563 ft | 206 kts | 323° |
| 2026-05-04 13:12 | 35.00185 | 128.74844 | 5250 ft | 190 kts | 324° |
| 2026-05-04 13:12 | 35.01325 | 128.74300 | 5081 ft | 169 kts | 2° |
| 2026-05-04 13:13 | 35.02250 | 128.74893 | 4720 ft | 148 kts | 52° |
| 2026-05-04 13:13 | 35.02595 | 128.76056 | 4258 ft | 149 kts | 80° |
| 2026-05-04 13:13 | 35.02489 | 128.77312 | 3881 ft | 148 kts | 97° |
| 2026-05-04 13:13 | 35.02710 | 128.78448 | 3427 ft | 138 kts | 43° |
| 2026-05-04 13:14 | 35.03558 | 128.78844 | 2968 ft | 131 kts | 0° |
| 2026-05-04 13:14 | 35.04486 | 128.78850 | 2658 ft | 138 kts | 17° |
| 2026-05-04 13:14 | 35.05191 | 128.79668 | 2621 ft | 141 kts | 43° |
| 2026-05-04 13:14 | 35.05903 | 128.80439 | 2614 ft | 137 kts | 31° |
| 2026-05-04 13:15 | 35.06673 | 128.81133 | 2615 ft | 138 kts | 31° |
| 2026-05-04 13:15 | 35.07444 | 128.81841 | 2621 ft | 138 kts | 32° |
| 2026-05-04 13:15 | 35.08212 | 128.82552 | 2613 ft | 139 kts | 32° |
| 2026-05-04 13:15 | 35.08986 | 128.83254 | 2628 ft | 139 kts | 31° |
| 2026-05-04 13:16 | 35.09758 | 128.83960 | 2653 ft | 138 kts | 32° |
| 2026-05-04 13:16 | 35.10267 | 128.84423 | 2646 ft | 137 kts | 31° |
| 2026-05-04 13:16 | 35.11292 | 128.85359 | 2650 ft | 139 kts | 34° |
| 2026-05-04 13:16 | 35.12045 | 128.86098 | 2611 ft | 139 kts | 34° |
| 2026-05-04 13:17 | 35.12801 | 128.86834 | 2606 ft | 139 kts | 33° |
| 2026-05-04 13:17 | 35.13563 | 128.87557 | 2607 ft | 138 kts | 31° |
| 2026-05-04 13:17 | 35.14324 | 128.88284 | 2627 ft | 139 kts | 31° |
| 2026-05-04 13:17 | 35.15088 | 128.89007 | 2534 ft | 140 kts | 32° |
| 2026-05-04 13:18 | 35.15606 | 128.89463 | 2427 ft | 137 kts | 21° |
| 2026-05-04 13:18 | 35.16517 | 128.89559 | 2281 ft | 132 kts | 351° |
| 2026-05-04 13:18 | 35.17431 | 128.89432 | 2118 ft | 132 kts | 349° |
| 2026-05-04 13:18 | 35.18341 | 128.89307 | 1944 ft | 131 kts | 349° |
| 2026-05-04 13:19 | 35.19253 | 128.89182 | 1763 ft | 131 kts | 350° |
| 2026-05-04 13:19 | 35.20169 | 128.89210 | 1587 ft | 132 kts | 0° |
| 2026-05-04 13:19 | 35.21083 | 128.89405 | 1391 ft | 137 kts | 12° |
| 2026-05-04 13:19 | 35.21824 | 128.90135 | 1169 ft | 144 kts | 60° |
| 2026-05-04 13:20 | 35.21977 | 128.91340 | 1019 ft | 144 kts | 89° |
| 2026-05-04 13:20 | 35.21797 | 128.92525 | 841 ft | 143 kts | 116° |
| 2026-05-04 13:20 | 35.21042 | 128.93231 | 596 ft | 144 kts | 165° |
| 2026-05-04 13:20 | 35.20057 | 128.93422 | 303 ft | 141 kts | 172° |
| 2026-05-04 13:21 | 35.19094 | 128.93552 | 118 ft | 141 kts | 172° |
| 2026-05-04 13:21 | 35.18144 | 128.93667 | 29 ft | 129 kts | 171° |
| 2026-05-04 13:21 | 35.17386 | 128.93766 | 32 ft | 68 kts | 176° |
| 2026-05-04 13:21 | 35.17159 | 128.93828 | 30 ft | 27 kts | 140° |
| 2026-05-04 13:22 | 35.17018 | 128.93949 | 28 ft | 21 kts | 146° |
| 2026-05-04 13:22 | 35.16966 | 128.94107 | 28 ft | 22 kts | 84° |
| 2026-05-04 13:22 | 35.16979 | 128.94280 | 29 ft | 16 kts | 85° |
| 2026-05-04 13:22 | 35.16987 | 128.94379 | 29 ft | 12 kts | 81° |
| 2026-05-04 13:23 | 35.17000 | 128.94487 | 29 ft | 7 kts | 83° |
| 2026-05-04 13:23 | 35.17011 | 128.94499 | 29 ft | 3 kts | 6° |
| 2026-05-04 13:23 | 35.17038 | 128.94498 | 29 ft | 5 kts | 353° |
| 2026-05-04 13:23 | 35.17078 | 128.94493 | 29 ft | 7 kts | 355° |
| 2026-05-04 13:24 | 35.17130 | 128.94488 | 29 ft | 8 kts | 355° |
| 2026-05-04 13:24 | 35.17195 | 128.94480 | 29 ft | 10 kts | 354° |
| 2026-05-04 13:24 | 35.17263 | 128.94472 | 29 ft | 4 kts | 355° |
| 2026-05-04 13:25 | 35.17277 | 128.94390 | 28 ft | 6 kts | 261° |
| 2026-05-04 13:25 | 35.17277 | 128.94386 | 28 ft | 0 kts | 263° |